To NAV CANADA Home Page Login to a new session Search on AWWS site Feedback and Comments Disclaimer Vers la page française équivalente Tips FAQ What's new on the site To the Forecasts and Observations / NOTAM section To "File a Flight Plan" website Publications and other links Update of the User's profile FIC Telephone Numbers My Weather Data Folder Route Weather Data Regional Weather Data Local Weather Data To the Forecasts and Observations / NOTAM section
Request Generated 04/26/2015 at 20:55:10 UTC . Weather information available at that time is displayed.

METAR/TAF

PANGNIRTUNG/NU    (show WxCam)

METAR CYXP 262000Z /////KT 15SM FEW008 RMK SF1 SF TR SNW CLR/MEDIUM
PACK LAST STFD OBS/NEXT 271100 VIA CYQB=
METAR CYXP 261900Z /////KT 15SM FEW008 RMK SF1 SF TR VIA CYQB=
METAR CYXP 261800Z /////KT 15SM FEW008 RMK SF1 VIA CYQB=

*** REMARK        : Forecast period has ended; this was the last TAF issued
*** REMARQUE : La période de prévision est échue; ceci était le dernier TAF qui a été émis
TAF AMD CYXP 261813Z 2618/2620 27006KT P6SM FEW008
RMK NXT FCST WILL BE ISSUED AT 271245Z=
Your time UTC time
Weather data provided by Environment Canada and NAV CANADA